sensor_id;sensor_type;location;lat;lon;timestamp;P1;durP1;ratioP1;P2;durP2;ratioP2
77748;SDS011;66938;52.084;5.228;2024-01-30T00:00:56;16.9;;;14.1;;
77748;SDS011;66938;52.084;5.228;2024-01-30T00:02:33;17.41;;;14.5;;
77748;SDS011;66938;52.084;5.228;2024-01-30T00:04:09;20.6;;;15.2;;
77748;SDS011;66938;52.084;5.228;2024-01-30T00:07:21;17.91;;;14.3;;
77748;SDS011;66938;52.084;5.228;2024-01-30T00:08:57;19.3;;;14.1;;
77748;SDS011;66938;52.084;5.228;2024-01-30T00:10:34;17.3;;;14.5;;
77748;SDS011;66938;52.084;5.228;2024-01-30T00:12:10;18.5;;;15.2;;
77748;SDS011;66938;52.084;5.228;2024-01-30T00:15:22;19.5;;;15.0;;
77748;SDS011;66938;52.084;5.228;2024-01-30T00:16:58;15.9;;;13.1;;
77748;SDS011;66938;52.084;5.228;2024-01-30T00:18:34;15.0;;;13.2;;
77748;SDS011;66938;52.084;5.228;2024-01-30T00:21:47;15.1;;;12.3;;
77748;SDS011;66938;52.084;5.228;2024-01-30T00:23:23;16.4;;;13.0;;
77748;SDS011;66938;52.084;5.228;2024-01-30T00:25:00;14.7;;;11.9;;
77748;SDS011;66938;52.084;5.228;2024-01-30T00:28:12;15.5;;;12.1;;
77748;SDS011;66938;52.084;5.228;2024-01-30T00:29:48;14.5;;;11.9;;
77748;SDS011;66938;52.084;5.228;2024-01-30T00:31:24;14.0;;;12.0;;
77748;SDS011;66938;52.084;5.228;2024-01-30T00:34:36;14.5;;;12.5;;
77748;SDS011;66938;52.084;5.228;2024-01-30T00:36:12;14.9;;;11.6;;
77748;SDS011;66938;52.084;5.228;2024-01-30T00:37:49;13.8;;;11.6;;
77748;SDS011;66938;52.084;5.228;2024-01-30T00:39:25;13.0;;;11.6;;
77748;SDS011;66938;52.084;5.228;2024-01-30T00:42:40;14.7;;;11.6;;
77748;SDS011;66938;52.084;5.228;2024-01-30T00:44:16;14.2;;;10.9;;
77748;SDS011;66938;52.084;5.228;2024-01-30T00:45:52;15.3;;;11.9;;
77748;SDS011;66938;52.084;5.228;2024-01-30T00:49:04;14.0;;;11.5;;
77748;SDS011;66938;52.084;5.228;2024-01-30T00:50:40;13.3;;;11.9;;
77748;SDS011;66938;52.084;5.228;2024-01-30T00:52:17;15.7;;;11.6;;
77748;SDS011;66938;52.084;5.228;2024-01-30T00:55:29;14.4;;;11.3;;
77748;SDS011;66938;52.084;5.228;2024-01-30T00:57:05;13.5;;;11.2;;
77748;SDS011;66938;52.084;5.228;2024-01-30T00:58:41;11.7;;;10.5;;
77748;SDS011;66938;52.084;5.228;2024-01-30T01:00:17;15.4;;;12.0;;
77748;SDS011;66938;52.084;5.228;2024-01-30T01:03:32;13.3;;;11.1;;
77748;SDS011;66938;52.084;5.228;2024-01-30T01:05:08;13.8;;;11.4;;
77748;SDS011;66938;52.084;5.228;2024-01-30T01:06:45;13.0;;;11.3;;
77748;SDS011;66938;52.084;5.228;2024-01-30T01:09:57;13.7;;;11.2;;
77748;SDS011;66938;52.084;5.228;2024-01-30T01:11:33;14.2;;;12.4;;
77748;SDS011;66938;52.084;5.228;2024-01-30T01:13:09;15.2;;;11.9;;
77748;SDS011;66938;52.084;5.228;2024-01-30T01:16:21;13.8;;;11.8;;
77748;SDS011;66938;52.084;5.228;2024-01-30T01:17:58;11.6;;;10.4;;
77748;SDS011;66938;52.084;5.228;2024-01-30T01:19:34;12.4;;;10.0;;
77748;SDS011;66938;52.084;5.228;2024-01-30T01:21:10;11.8;;;10.0;;
77748;SDS011;66938;52.084;5.228;2024-01-30T01:24:22;12.2;;;10.1;;
77748;SDS011;66938;52.084;5.228;2024-01-30T01:26:01;12.3;;;10.0;;
77748;SDS011;66938;52.084;5.228;2024-01-30T01:27:37;12.5;;;10.8;;
77748;SDS011;66938;52.084;5.228;2024-01-30T01:30:50;13.3;;;11.3;;
77748;SDS011;66938;52.084;5.228;2024-01-30T01:32:26;11.7;;;10.3;;
77748;SDS011;66938;52.084;5.228;2024-01-30T01:34:02;12.6;;;10.3;;
77748;SDS011;66938;52.084;5.228;2024-01-30T01:37:14;13.2;;;11.5;;
77748;SDS011;66938;52.084;5.228;2024-01-30T01:38:50;14.6;;;11.9;;
77748;SDS011;66938;52.084;5.228;2024-01-30T01:40:26;12.7;;;11.3;;
77748;SDS011;66938;52.084;5.228;2024-01-30T01:43:39;12.3;;;11.0;;
77748;SDS011;66938;52.084;5.228;2024-01-30T01:45:15;13.0;;;11.1;;
77748;SDS011;66938;52.084;5.228;2024-01-30T01:46:52;13.0;;;11.1;;
77748;SDS011;66938;52.084;5.228;2024-01-30T01:48:29;12.0;;;10.4;;
77748;SDS011;66938;52.084;5.228;2024-01-30T01:51:41;14.5;;;12.1;;
77748;SDS011;66938;52.084;5.228;2024-01-30T01:53:18;14.2;;;11.3;;
77748;SDS011;66938;52.084;5.228;2024-01-30T01:54:54;14.3;;;11.5;;
77748;SDS011;66938;52.084;5.228;2024-01-30T01:58:09;13.5;;;11.1;;
77748;SDS011;66938;52.084;5.228;2024-01-30T01:59:46;14.6;;;11.6;;
77748;SDS011;66938;52.084;5.228;2024-01-30T02:01:23;11.9;;;10.5;;
77748;SDS011;66938;52.084;5.228;2024-01-30T02:03:01;12.7;;;10.7;;
77748;SDS011;66938;52.084;5.228;2024-01-30T02:06:16;13.0;;;11.3;;
77748;SDS011;66938;52.084;5.228;2024-01-30T02:07:53;12.8;;;11.0;;
77748;SDS011;66938;52.084;5.228;2024-01-30T02:09:31;13.1;;;10.6;;
77748;SDS011;66938;52.084;5.228;2024-01-30T02:12:42;13.3;;;10.8;;
77748;SDS011;66938;52.084;5.228;2024-01-30T02:14:19;14.2;;;10.6;;
77748;SDS011;66938;52.084;5.228;2024-01-30T02:15:55;12.0;;;10.6;;
77748;SDS011;66938;52.084;5.228;2024-01-30T02:19:07;12.6;;;9.9;;
77748;SDS011;66938;52.084;5.228;2024-01-30T02:20:43;12.2;;;10.5;;
77748;SDS011;66938;52.084;5.228;2024-01-30T02:22:19;13.3;;;11.5;;
77748;SDS011;66938;52.084;5.228;2024-01-30T02:23:56;12.9;;;11.5;;
77748;SDS011;66938;52.084;5.228;2024-01-30T02:27:15;12.6;;;11.3;;
77748;SDS011;66938;52.084;5.228;2024-01-30T02:28:51;12.7;;;11.3;;
77748;SDS011;66938;52.084;5.228;2024-01-30T02:30:27;14.1;;;11.9;;
77748;SDS011;66938;52.084;5.228;2024-01-30T02:33:40;13.5;;;11.6;;
77748;SDS011;66938;52.084;5.228;2024-01-30T02:35:16;13.2;;;11.4;;
77748;SDS011;66938;52.084;5.228;2024-01-30T02:36:52;13.1;;;11.6;;
77748;SDS011;66938;52.084;5.228;2024-01-30T02:40:05;14.2;;;11.5;;
77748;SDS011;66938;52.084;5.228;2024-01-30T02:41:43;16.8;;;11.9;;
77748;SDS011;66938;52.084;5.228;2024-01-30T02:43:19;12.6;;;10.7;;
77748;SDS011;66938;52.084;5.228;2024-01-30T02:44:55;12.7;;;10.4;;
77748;SDS011;66938;52.084;5.228;2024-01-30T02:48:07;13.0;;;11.2;;
77748;SDS011;66938;52.084;5.228;2024-01-30T02:49:43;13.0;;;10.4;;
77748;SDS011;66938;52.084;5.228;2024-01-30T02:51:19;12.9;;;10.5;;
77748;SDS011;66938;52.084;5.228;2024-01-30T02:54:35;13.1;;;10.3;;
77748;SDS011;66938;52.084;5.228;2024-01-30T02:56:11;11.7;;;10.0;;
77748;SDS011;66938;52.084;5.228;2024-01-30T02:57:47;12.3;;;10.21;;
77748;SDS011;66938;52.084;5.228;2024-01-30T03:00:59;12.5;;;10.6;;
77748;SDS011;66938;52.084;5.228;2024-01-30T03:02:35;12.0;;;10.7;;
77748;SDS011;66938;52.084;5.228;2024-01-30T03:04:12;11.5;;;10.0;;
77748;SDS011;66938;52.084;5.228;2024-01-30T03:05:48;12.8;;;10.9;;
77748;SDS011;66938;52.084;5.228;2024-01-30T03:09:01;11.2;;;9.81;;
77748;SDS011;66938;52.084;5.228;2024-01-30T03:10:37;12.8;;;9.9;;
77748;SDS011;66938;52.084;5.228;2024-01-30T03:12:13;12.2;;;10.8;;
77748;SDS011;66938;52.084;5.228;2024-01-30T03:15:25;13.3;;;10.4;;
77748;SDS011;66938;52.084;5.228;2024-01-30T03:17:01;11.9;;;10.6;;
77748;SDS011;66938;52.084;5.228;2024-01-30T03:18:37;12.8;;;10.5;;
77748;SDS011;66938;52.084;5.228;2024-01-30T03:21:50;13.6;;;10.8;;
77748;SDS011;66938;52.084;5.228;2024-01-30T03:23:26;13.6;;;11.2;;
77748;SDS011;66938;52.084;5.228;2024-01-30T03:25:02;14.9;;;12.5;;
77748;SDS011;66938;52.084;5.228;2024-01-30T03:28:15;15.9;;;12.7;;
77748;SDS011;66938;52.084;5.228;2024-01-30T03:29:51;15.4;;;13.2;;
77748;SDS011;66938;52.084;5.228;2024-01-30T03:31:27;17.7;;;13.9;;
77748;SDS011;66938;52.084;5.228;2024-01-30T03:33:04;15.5;;;12.5;;
77748;SDS011;66938;52.084;5.228;2024-01-30T03:36:16;16.7;;;12.8;;
77748;SDS011;66938;52.084;5.228;2024-01-30T03:37:52;14.9;;;12.9;;
77748;SDS011;66938;52.084;5.228;2024-01-30T03:39:28;18.7;;;14.6;;
77748;SDS011;66938;52.084;5.228;2024-01-30T03:42:43;16.0;;;12.7;;
77748;SDS011;66938;52.084;5.228;2024-01-30T03:44:19;15.4;;;13.2;;
77748;SDS011;66938;52.084;5.228;2024-01-30T03:45:55;16.2;;;13.3;;
77748;SDS011;66938;52.084;5.228;2024-01-30T03:49:09;16.61;;;13.8;;
77748;SDS011;66938;52.084;5.228;2024-01-30T03:50:46;16.0;;;13.7;;
77748;SDS011;66938;52.084;5.228;2024-01-30T03:52:22;16.0;;;13.7;;
77748;SDS011;66938;52.084;5.228;2024-01-30T03:53:58;17.8;;;14.4;;
77748;SDS011;66938;52.084;5.228;2024-01-30T03:57:10;16.61;;;14.5;;
77748;SDS011;66938;52.084;5.228;2024-01-30T03:58:46;16.4;;;13.6;;
77748;SDS011;66938;52.084;5.228;2024-01-30T04:00:22;20.41;;;14.6;;
77748;SDS011;66938;52.084;5.228;2024-01-30T04:03:36;17.2;;;14.2;;
77748;SDS011;66938;52.084;5.228;2024-01-30T04:05:12;17.11;;;14.5;;
77748;SDS011;66938;52.084;5.228;2024-01-30T04:06:48;16.7;;;14.6;;
77748;SDS011;66938;52.084;5.228;2024-01-30T04:10:00;16.4;;;14.3;;
77748;SDS011;66938;52.084;5.228;2024-01-30T04:11:36;16.9;;;13.8;;
77748;SDS011;66938;52.084;5.228;2024-01-30T04:13:12;17.11;;;13.8;;
77748;SDS011;66938;52.084;5.228;2024-01-30T04:14:48;16.3;;;13.5;;
77748;SDS011;66938;52.084;5.228;2024-01-30T04:18:01;16.3;;;13.5;;
77748;SDS011;66938;52.084;5.228;2024-01-30T04:19:37;15.2;;;12.5;;
77748;SDS011;66938;52.084;5.228;2024-01-30T04:21:13;16.0;;;13.1;;
77748;SDS011;66938;52.084;5.228;2024-01-30T04:24:25;15.1;;;12.6;;
77748;SDS011;66938;52.084;5.228;2024-01-30T04:26:01;14.0;;;11.7;;
77748;SDS011;66938;52.084;5.228;2024-01-30T04:27:37;14.1;;;11.9;;
77748;SDS011;66938;52.084;5.228;2024-01-30T04:30:50;15.8;;;13.4;;
77748;SDS011;66938;52.084;5.228;2024-01-30T04:32:26;14.8;;;13.2;;
77748;SDS011;66938;52.084;5.228;2024-01-30T04:34:02;14.6;;;12.6;;
77748;SDS011;66938;52.084;5.228;2024-01-30T04:37:14;12.9;;;10.9;;
77748;SDS011;66938;52.084;5.228;2024-01-30T04:38:50;12.7;;;10.7;;
77748;SDS011;66938;52.084;5.228;2024-01-30T04:40:26;14.3;;;11.2;;
77748;SDS011;66938;52.084;5.228;2024-01-30T04:42:03;15.6;;;12.7;;
77748;SDS011;66938;52.084;5.228;2024-01-30T04:45:16;14.7;;;13.1;;
77748;SDS011;66938;52.084;5.228;2024-01-30T04:46:52;13.3;;;10.9;;
77748;SDS011;66938;52.084;5.228;2024-01-30T04:48:28;15.6;;;12.0;;
77748;SDS011;66938;52.084;5.228;2024-01-30T04:51:41;15.6;;;12.0;;
77748;SDS011;66938;52.084;5.228;2024-01-30T04:53:17;13.3;;;11.6;;
77748;SDS011;66938;52.084;5.228;2024-01-30T04:54:53;14.5;;;12.7;;
77748;SDS011;66938;52.084;5.228;2024-01-30T04:58:09;14.5;;;12.7;;
77748;SDS011;66938;52.084;5.228;2024-01-30T04:59:45;13.3;;;11.4;;
77748;SDS011;66938;52.084;5.228;2024-01-30T05:01:21;14.9;;;11.6;;
77748;SDS011;66938;52.084;5.228;2024-01-30T05:02:57;11.6;;;10.21;;
77748;SDS011;66938;52.084;5.228;2024-01-30T05:06:09;13.5;;;10.8;;
77748;SDS011;66938;52.084;5.228;2024-01-30T05:07:45;12.1;;;10.21;;
77748;SDS011;66938;52.084;5.228;2024-01-30T05:09:22;11.5;;;9.81;;
77748;SDS011;66938;52.084;5.228;2024-01-30T05:12:36;11.6;;;9.71;;
77748;SDS011;66938;52.084;5.228;2024-01-30T05:14:12;12.1;;;10.7;;
77748;SDS011;66938;52.084;5.228;2024-01-30T05:15:48;11.9;;;9.71;;
77748;SDS011;66938;52.084;5.228;2024-01-30T05:19:00;12.3;;;9.9;;
77748;SDS011;66938;52.084;5.228;2024-01-30T05:20:36;12.8;;;10.21;;
77748;SDS011;66938;52.084;5.228;2024-01-30T05:22:13;12.7;;;10.21;;
77748;SDS011;66938;52.084;5.228;2024-01-30T05:23:49;12.2;;;9.9;;
77748;SDS011;66938;52.084;5.228;2024-01-30T05:27:01;12.2;;;9.5;;
77748;SDS011;66938;52.084;5.228;2024-01-30T05:28:37;12.5;;;9.9;;
77748;SDS011;66938;52.084;5.228;2024-01-30T05:30:13;10.6;;;9.5;;
77748;SDS011;66938;52.084;5.228;2024-01-30T05:33:25;11.9;;;10.0;;
77748;SDS011;66938;52.084;5.228;2024-01-30T05:35:02;12.7;;;10.21;;
77748;SDS011;66938;52.084;5.228;2024-01-30T05:36:38;13.3;;;10.9;;
77748;SDS011;66938;52.084;5.228;2024-01-30T05:39:52;11.8;;;10.21;;
77748;SDS011;66938;52.084;5.228;2024-01-30T05:41:28;12.1;;;10.0;;
77748;SDS011;66938;52.084;5.228;2024-01-30T05:43:04;11.7;;;10.0;;
77748;SDS011;66938;52.084;5.228;2024-01-30T05:46:16;12.4;;;10.1;;
77748;SDS011;66938;52.084;5.228;2024-01-30T05:47:52;12.6;;;10.5;;
77748;SDS011;66938;52.084;5.228;2024-01-30T05:49:32;12.6;;;10.7;;
77748;SDS011;66938;52.084;5.228;2024-01-30T05:51:08;13.9;;;10.8;;
77748;SDS011;66938;52.084;5.228;2024-01-30T05:54:20;12.6;;;10.3;;
77748;SDS011;66938;52.084;5.228;2024-01-30T05:55:56;11.2;;;10.0;;
77748;SDS011;66938;52.084;5.228;2024-01-30T05:57:32;11.3;;;10.1;;
77748;SDS011;66938;52.084;5.228;2024-01-30T06:00:44;13.7;;;11.2;;
77748;SDS011;66938;52.084;5.228;2024-01-30T06:02:21;13.9;;;11.0;;
77748;SDS011;66938;52.084;5.228;2024-01-30T06:03:57;14.8;;;11.4;;
77748;SDS011;66938;52.084;5.228;2024-01-30T06:07:09;14.1;;;10.7;;
77748;SDS011;66938;52.084;5.228;2024-01-30T06:08:45;11.6;;;10.4;;
77748;SDS011;66938;52.084;5.228;2024-01-30T06:10:21;11.1;;;9.71;;
77748;SDS011;66938;52.084;5.228;2024-01-30T06:12:00;12.9;;;10.3;;
77748;SDS011;66938;52.084;5.228;2024-01-30T06:15:12;10.8;;;9.6;;
77748;SDS011;66938;52.084;5.228;2024-01-30T06:16:49;13.0;;;10.21;;
77748;SDS011;66938;52.084;5.228;2024-01-30T06:18:25;11.3;;;9.4;;
77748;SDS011;66938;52.084;5.228;2024-01-30T06:21:37;12.0;;;10.1;;
77748;SDS011;66938;52.084;5.228;2024-01-30T06:23:13;12.5;;;9.81;;
77748;SDS011;66938;52.084;5.228;2024-01-30T06:24:49;10.5;;;9.31;;
77748;SDS011;66938;52.084;5.228;2024-01-30T06:28:01;11.8;;;9.6;;
77748;SDS011;66938;52.084;5.228;2024-01-30T06:29:37;11.8;;;9.81;;
77748;SDS011;66938;52.084;5.228;2024-01-30T06:31:14;11.7;;;9.71;;
77748;SDS011;66938;52.084;5.228;2024-01-30T06:34:26;10.9;;;9.4;;
77748;SDS011;66938;52.084;5.228;2024-01-30T06:36:02;11.5;;;9.21;;
77748;SDS011;66938;52.084;5.228;2024-01-30T06:37:38;9.9;;;8.81;;
77748;SDS011;66938;52.084;5.228;2024-01-30T06:39:14;11.0;;;8.6;;
77748;SDS011;66938;52.084;5.228;2024-01-30T06:42:26;10.5;;;8.71;;
77748;SDS011;66938;52.084;5.228;2024-01-30T06:44:02;10.7;;;8.71;;
77748;SDS011;66938;52.084;5.228;2024-01-30T06:45:38;11.0;;;8.81;;
77748;SDS011;66938;52.084;5.228;2024-01-30T06:48:51;10.9;;;9.0;;
77748;SDS011;66938;52.084;5.228;2024-01-30T06:50:27;10.7;;;8.71;;
77748;SDS011;66938;52.084;5.228;2024-01-30T06:52:03;11.0;;;8.1;;
77748;SDS011;66938;52.084;5.228;2024-01-30T06:55:16;10.7;;;8.6;;
77748;SDS011;66938;52.084;5.228;2024-01-30T06:56:53;10.7;;;8.31;;
77748;SDS011;66938;52.084;5.228;2024-01-30T06:58:29;11.6;;;8.6;;
77748;SDS011;66938;52.084;5.228;2024-01-30T07:00:06;9.71;;;8.31;;
77748;SDS011;66938;52.084;5.228;2024-01-30T07:03:18;9.81;;;8.0;;
77748;SDS011;66938;52.084;5.228;2024-01-30T07:04:55;10.0;;;8.2;;
77748;SDS011;66938;52.084;5.228;2024-01-30T07:06:31;10.6;;;8.31;;
77748;SDS011;66938;52.084;5.228;2024-01-30T07:09:43;10.3;;;8.2;;
77748;SDS011;66938;52.084;5.228;2024-01-30T07:11:19;10.21;;;7.8;;
77748;SDS011;66938;52.084;5.228;2024-01-30T07:12:55;10.0;;;8.0;;
77748;SDS011;66938;52.084;5.228;2024-01-30T07:16:07;10.3;;;8.1;;
77748;SDS011;66938;52.084;5.228;2024-01-30T07:17:43;9.5;;;7.5;;
77748;SDS011;66938;52.084;5.228;2024-01-30T07:19:19;9.5;;;7.5;;
77748;SDS011;66938;52.084;5.228;2024-01-30T07:22:32;10.21;;;7.6;;
77748;SDS011;66938;52.084;5.228;2024-01-30T07:24:09;10.6;;;7.7;;
77748;SDS011;66938;52.084;5.228;2024-01-30T07:25:45;9.71;;;7.7;;
77748;SDS011;66938;52.084;5.228;2024-01-30T07:27:21;12.3;;;7.9;;
77748;SDS011;66938;52.084;5.228;2024-01-30T07:30:33;11.3;;;8.0;;
77748;SDS011;66938;52.084;5.228;2024-01-30T07:32:09;9.81;;;7.1;;
77748;SDS011;66938;52.084;5.228;2024-01-30T07:35:21;10.9;;;8.2;;
77748;SDS011;66938;52.084;5.228;2024-01-30T07:36:58;11.9;;;8.0;;
77748;SDS011;66938;52.084;5.228;2024-01-30T07:38:34;9.5;;;7.7;;
77748;SDS011;66938;52.084;5.228;2024-01-30T07:41:46;10.21;;;8.0;;
77748;SDS011;66938;52.084;5.228;2024-01-30T07:43:22;11.5;;;7.9;;
77748;SDS011;66938;52.084;5.228;2024-01-30T07:44:58;10.5;;;7.9;;
77748;SDS011;66938;52.084;5.228;2024-01-30T07:46:34;11.3;;;8.1;;
77748;SDS011;66938;52.084;5.228;2024-01-30T07:49:47;10.9;;;7.6;;
77748;SDS011;66938;52.084;5.228;2024-01-30T07:51:23;11.4;;;7.3;;
77748;SDS011;66938;52.084;5.228;2024-01-30T07:53:00;11.3;;;7.9;;
77748;SDS011;66938;52.084;5.228;2024-01-30T07:56:26;9.1;;;7.1;;
77748;SDS011;66938;52.084;5.228;2024-01-30T07:58:02;10.1;;;8.0;;
77748;SDS011;66938;52.084;5.228;2024-01-30T07:59:38;9.6;;;7.6;;
77748;SDS011;66938;52.084;5.228;2024-01-30T08:01:14;10.8;;;7.6;;
77748;SDS011;66938;52.084;5.228;2024-01-30T08:04:29;10.3;;;7.2;;
77748;SDS011;66938;52.084;5.228;2024-01-30T08:06:05;11.1;;;7.8;;
77748;SDS011;66938;52.084;5.228;2024-01-30T08:07:42;12.4;;;8.2;;
77748;SDS011;66938;52.084;5.228;2024-01-30T08:10:54;8.9;;;7.1;;
77748;SDS011;66938;52.084;5.228;2024-01-30T08:12:30;8.6;;;7.1;;
77748;SDS011;66938;52.084;5.228;2024-01-30T08:14:06;10.9;;;8.0;;
77748;SDS011;66938;52.084;5.228;2024-01-30T08:17:18;10.5;;;7.4;;
77748;SDS011;66938;52.084;5.228;2024-01-30T08:18:54;11.6;;;7.7;;
77748;SDS011;66938;52.084;5.228;2024-01-30T08:20:31;10.9;;;7.6;;
77748;SDS011;66938;52.084;5.228;2024-01-30T08:23:43;10.0;;;7.7;;
77748;SDS011;66938;52.084;5.228;2024-01-30T08:25:19;11.0;;;7.7;;
77748;SDS011;66938;52.084;5.228;2024-01-30T08:26:55;12.1;;;7.7;;
77748;SDS011;66938;52.084;5.228;2024-01-30T08:28:31;10.8;;;7.4;;
77748;SDS011;66938;52.084;5.228;2024-01-30T08:31:44;9.9;;;8.0;;
77748;SDS011;66938;52.084;5.228;2024-01-30T08:33:20;11.5;;;7.8;;
77748;SDS011;66938;52.084;5.228;2024-01-30T08:34:57;11.8;;;8.1;;
77748;SDS011;66938;52.084;5.228;2024-01-30T08:38:09;12.2;;;8.1;;
77748;SDS011;66938;52.084;5.228;2024-01-30T08:39:45;13.0;;;8.0;;
77748;SDS011;66938;52.084;5.228;2024-01-30T08:41:21;12.6;;;8.31;;
77748;SDS011;66938;52.084;5.228;2024-01-30T08:44:33;11.7;;;8.1;;
77748;SDS011;66938;52.084;5.228;2024-01-30T08:46:09;13.2;;;8.0;;
77748;SDS011;66938;52.084;5.228;2024-01-30T08:47:45;11.0;;;8.6;;
77748;SDS011;66938;52.084;5.228;2024-01-30T08:49:21;11.2;;;8.0;;
77748;SDS011;66938;52.084;5.228;2024-01-30T08:52:34;13.2;;;8.1;;
77748;SDS011;66938;52.084;5.228;2024-01-30T08:54:10;11.6;;;8.4;;
77748;SDS011;66938;52.084;5.228;2024-01-30T08:55:46;11.9;;;7.6;;
77748;SDS011;66938;52.084;5.228;2024-01-30T08:58:58;12.7;;;8.31;;
77748;SDS011;66938;52.084;5.228;2024-01-30T09:00:34;11.6;;;8.0;;
77748;SDS011;66938;52.084;5.228;2024-01-30T09:02:09;11.0;;;7.6;;
77748;SDS011;66938;52.084;5.228;2024-01-30T09:05:22;13.3;;;8.5;;
77748;SDS011;66938;52.084;5.228;2024-01-30T09:06:58;12.5;;;8.1;;
77748;SDS011;66938;52.084;5.228;2024-01-30T09:08:34;13.4;;;7.8;;
77748;SDS011;66938;52.084;5.228;2024-01-30T09:11:46;13.1;;;8.0;;
77748;SDS011;66938;52.084;5.228;2024-01-30T09:13:22;11.7;;;8.2;;
77748;SDS011;66938;52.084;5.228;2024-01-30T09:14:58;12.9;;;7.9;;
77748;SDS011;66938;52.084;5.228;2024-01-30T09:16:34;10.8;;;7.3;;
77748;SDS011;66938;52.084;5.228;2024-01-30T09:19:47;12.0;;;7.5;;
77748;SDS011;66938;52.084;5.228;2024-01-30T09:21:23;11.9;;;7.6;;
77748;SDS011;66938;52.084;5.228;2024-01-30T09:23:04;11.1;;;7.7;;
77748;SDS011;66938;52.084;5.228;2024-01-30T09:26:16;12.1;;;7.9;;
77748;SDS011;66938;52.084;5.228;2024-01-30T09:27:52;11.3;;;7.5;;
77748;SDS011;66938;52.084;5.228;2024-01-30T09:29:28;12.6;;;7.9;;
77748;SDS011;66938;52.084;5.228;2024-01-30T09:32:45;11.3;;;7.5;;
77748;SDS011;66938;52.084;5.228;2024-01-30T09:34:21;10.9;;;7.5;;
77748;SDS011;66938;52.084;5.228;2024-01-30T09:35:58;13.1;;;7.6;;
77748;SDS011;66938;52.084;5.228;2024-01-30T09:37:34;11.0;;;7.7;;
77748;SDS011;66938;52.084;5.228;2024-01-30T09:40:46;12.2;;;7.8;;
77748;SDS011;66938;52.084;5.228;2024-01-30T09:42:33;11.8;;;7.6;;
77748;SDS011;66938;52.084;5.228;2024-01-30T09:44:10;11.7;;;7.7;;
77748;SDS011;66938;52.084;5.228;2024-01-30T09:47:25;11.6;;;7.4;;
77748;SDS011;66938;52.084;5.228;2024-01-30T09:49:02;10.4;;;7.2;;
77748;SDS011;66938;52.084;5.228;2024-01-30T09:50:39;11.9;;;8.31;;
77748;SDS011;66938;52.084;5.228;2024-01-30T09:52:17;10.21;;;7.4;;
77748;SDS011;66938;52.084;5.228;2024-01-30T09:55:30;11.5;;;7.5;;
77748;SDS011;66938;52.084;5.228;2024-01-30T09:57:06;14.4;;;7.8;;
77748;SDS011;66938;52.084;5.228;2024-01-30T09:58:42;10.0;;;7.8;;
77748;SDS011;66938;52.084;5.228;2024-01-30T10:01:54;12.9;;;8.2;;
77748;SDS011;66938;52.084;5.228;2024-01-30T10:03:31;12.5;;;7.9;;
77748;SDS011;66938;52.084;5.228;2024-01-30T10:05:08;11.8;;;8.0;;
77748;SDS011;66938;52.084;5.228;2024-01-30T10:06:44;12.1;;;7.9;;
77748;SDS011;66938;52.084;5.228;2024-01-30T10:09:56;10.1;;;7.6;;
77748;SDS011;66938;52.084;5.228;2024-01-30T10:11:32;10.3;;;7.8;;
77748;SDS011;66938;52.084;5.228;2024-01-30T10:13:08;10.21;;;7.2;;
77748;SDS011;66938;52.084;5.228;2024-01-30T10:16:20;12.4;;;7.4;;
77748;SDS011;66938;52.084;5.228;2024-01-30T10:17:56;10.4;;;7.5;;
77748;SDS011;66938;52.084;5.228;2024-01-30T10:19:37;8.4;;;7.0;;
77748;SDS011;66938;52.084;5.228;2024-01-30T10:22:49;11.1;;;8.0;;
77748;SDS011;66938;52.084;5.228;2024-01-30T10:24:25;11.4;;;7.3;;
77748;SDS011;66938;52.084;5.228;2024-01-30T10:26:02;10.4;;;7.5;;
77748;SDS011;66938;52.084;5.228;2024-01-30T10:27:39;13.2;;;7.6;;
77748;SDS011;66938;52.084;5.228;2024-01-30T10:30:57;11.1;;;7.3;;
77748;SDS011;66938;52.084;5.228;2024-01-30T10:32:34;13.0;;;7.5;;
77748;SDS011;66938;52.084;5.228;2024-01-30T10:34:10;11.4;;;7.1;;
77748;SDS011;66938;52.084;5.228;2024-01-30T10:37:25;11.6;;;7.4;;
77748;SDS011;66938;52.084;5.228;2024-01-30T10:39:02;10.9;;;7.0;;
77748;SDS011;66938;52.084;5.228;2024-01-30T10:40:39;11.0;;;7.6;;
77748;SDS011;66938;52.084;5.228;2024-01-30T10:43:55;10.7;;;7.8;;
77748;SDS011;66938;52.084;5.228;2024-01-30T10:45:38;11.3;;;8.0;;
77748;SDS011;66938;52.084;5.228;2024-01-30T10:47:21;9.4;;;7.4;;
77748;SDS011;66938;52.084;5.228;2024-01-30T10:49:01;9.71;;;6.6;;
77748;SDS011;66938;52.084;5.228;2024-01-30T10:50:40;11.2;;;6.7;;
77748;SDS011;66938;52.084;5.228;2024-01-30T10:53:55;9.0;;;6.8;;
77748;SDS011;66938;52.084;5.228;2024-01-30T10:55:32;10.4;;;6.8;;
77748;SDS011;66938;52.084;5.228;2024-01-30T10:57:10;10.3;;;6.2;;
77748;SDS011;66938;52.084;5.228;2024-01-30T11:00:26;10.6;;;6.5;;
77748;SDS011;66938;52.084;5.228;2024-01-30T11:02:02;10.4;;;5.9;;
77748;SDS011;66938;52.084;5.228;2024-01-30T11:03:42;9.5;;;5.9;;
77748;SDS011;66938;52.084;5.228;2024-01-30T11:05:23;9.9;;;5.9;;
77748;SDS011;66938;52.084;5.228;2024-01-30T11:08:37;9.71;;;6.4;;
77748;SDS011;66938;52.084;5.228;2024-01-30T11:10:13;13.5;;;6.9;;
77748;SDS011;66938;52.084;5.228;2024-01-30T11:11:49;9.4;;;6.3;;
77748;SDS011;66938;52.084;5.228;2024-01-30T11:15:04;10.4;;;6.5;;
77748;SDS011;66938;52.084;5.228;2024-01-30T11:16:41;8.81;;;5.5;;
77748;SDS011;66938;52.084;5.228;2024-01-30T11:18:23;8.2;;;5.2;;
77748;SDS011;66938;52.084;5.228;2024-01-30T11:19:59;9.31;;;5.3;;
77748;SDS011;66938;52.084;5.228;2024-01-30T11:23:16;8.0;;;4.0;;
77748;SDS011;66938;52.084;5.228;2024-01-30T11:24:53;6.6;;;3.3;;
77748;SDS011;66938;52.084;5.228;2024-01-30T11:26:30;6.3;;;3.4;;
77748;SDS011;66938;52.084;5.228;2024-01-30T11:29:49;6.3;;;3.4;;
77748;SDS011;66938;52.084;5.228;2024-01-30T11:31:26;8.5;;;3.0;;
77748;SDS011;66938;52.084;5.228;2024-01-30T11:33:03;6.8;;;2.8;;
77748;SDS011;66938;52.084;5.228;2024-01-30T11:34:41;5.8;;;2.21;;
77748;SDS011;66938;52.084;5.228;2024-01-30T11:38:01;6.1;;;2.21;;
77748;SDS011;66938;52.084;5.228;2024-01-30T11:39:39;5.5;;;1.8;;
77748;SDS011;66938;52.084;5.228;2024-01-30T11:41:16;6.7;;;1.9;;
77748;SDS011;66938;52.084;5.228;2024-01-30T11:44:30;6.7;;;1.7;;
77748;SDS011;66938;52.084;5.228;2024-01-30T11:46:06;5.9;;;2.0;;
77748;SDS011;66938;52.084;5.228;2024-01-30T11:47:43;5.11;;;1.9;;
77748;SDS011;66938;52.084;5.228;2024-01-30T11:49:19;5.7;;;1.6;;
77748;SDS011;66938;52.084;5.228;2024-01-30T11:52:31;4.2;;;1.7;;
77748;SDS011;66938;52.084;5.228;2024-01-30T11:54:09;5.7;;;1.7;;
77748;SDS011;66938;52.084;5.228;2024-01-30T11:55:50;5.4;;;2.0;;
77748;SDS011;66938;52.084;5.228;2024-01-30T11:59:03;4.41;;;1.7;;
77748;SDS011;66938;52.084;5.228;2024-01-30T12:00:39;5.6;;;1.8;;
77748;SDS011;66938;52.084;5.228;2024-01-30T12:02:15;5.0;;;2.0;;
77748;SDS011;66938;52.084;5.228;2024-01-30T12:05:27;4.0;;;1.7;;
77748;SDS011;66938;52.084;5.228;2024-01-30T12:07:04;4.1;;;1.8;;
77748;SDS011;66938;52.084;5.228;2024-01-30T12:08:40;4.8;;;1.9;;
77748;SDS011;66938;52.084;5.228;2024-01-30T12:10:17;6.9;;;2.1;;
77748;SDS011;66938;52.084;5.228;2024-01-30T12:13:30;4.1;;;2.0;;
77748;SDS011;66938;52.084;5.228;2024-01-30T12:15:06;5.9;;;2.31;;
77748;SDS011;66938;52.084;5.228;2024-01-30T12:16:43;4.41;;;2.6;;
77748;SDS011;66938;52.084;5.228;2024-01-30T12:20:03;5.5;;;2.7;;
77748;SDS011;66938;52.084;5.228;2024-01-30T12:21:40;9.4;;;2.9;;
77748;SDS011;66938;52.084;5.228;2024-01-30T12:23:17;4.91;;;3.1;;
77748;SDS011;66938;52.084;5.228;2024-01-30T12:24:53;6.5;;;2.6;;
77748;SDS011;66938;52.084;5.228;2024-01-30T12:28:05;5.8;;;2.7;;
77748;SDS011;66938;52.084;5.228;2024-01-30T12:29:41;6.3;;;2.8;;
77748;SDS011;66938;52.084;5.228;2024-01-30T12:31:17;5.5;;;2.31;;
77748;SDS011;66938;52.084;5.228;2024-01-30T12:34:29;5.8;;;2.7;;
77748;SDS011;66938;52.084;5.228;2024-01-30T12:36:05;7.1;;;2.1;;
77748;SDS011;66938;52.084;5.228;2024-01-30T12:37:42;6.5;;;2.5;;
77748;SDS011;66938;52.084;5.228;2024-01-30T12:40:56;4.3;;;2.0;;
77748;SDS011;66938;52.084;5.228;2024-01-30T12:42:32;5.6;;;2.1;;